Terminal Aerodrome Forecast
Issued by NWS

Home | Current Version | Previous Version | Text Only | Print | Product List | Glossary On
Versions: 1 2 3 4 5 6 7 8 9 10 11 12 13 14 15
000
FTUS45 KVEF 302053 AAA
TAFDAG
TAF AMD
KDAG 302053Z 3021/3118 27040G50KT 5SM BLDU FEW250
      TEMPO 3021/3024 27045G55KT 3SM BLDU
     FM310300 30020G30KT P6SM SCT090
     FM310800 26014G22KT P6SM SCT090=

USA.gov is the U.S. government's official web portal to all federal, state and local government web resources and services.